sim
Sign-in with your pilot id or email,
or register
Callsign
Passwort

Schedule Details

Flight Number: RYR7128 (1)
Departure: Dublin Airport (EIDW) at 14:10
Arrival: Fuerteventura Airport (GCFV) at 18:35
Route: Ryanair Passenger Schedule. Enter filed route here before submitting Pirep.

Weather Information
Getting current METAR information for EIDW 212230Z 13006KT CAVOK 12/06 Q1009 NOSIG
Getting current METAR information for GCFV 212230Z AUTO 33007KT 300V360 9999 BKN027 19/13 Q1015

Schedule Frequency

Route Map